Klosterneuburg, Austria
Current Conditions -  °F | °C
As of 3:50 AM on Sunday 21 Dec 2014 (Local Time) from LOWW Reporting Station
Rain Showers Rain Showers  
Wind Chill: 32°   Ceiling: 3500
Heat Index: 41°   Visibility: 6mi
Dew Point: 36°   Wind: 17mph
Humidity: 81%   Direction: 290°WNW
Pressure: 30.15"   Gusts: NA
Location:  48.31°N, 16.31°E
Report Text: LOWW 210150Z 29015KT 9999 -SHRA FEW022 BKN035 05/02 Q1021 NOSIG
Loading
Personal Weather Stations






























Interactive Weather Map New forecast layout! Learn more

10-Day Weather Forecast

Advertisements
Track Severe Weather on mobile